Time;durP1;ratioP1;P1;durP2;ratioP2;P2;SDS_P1;SDS_P2;PMS_P1;PMS_P2;Temp;Humidity;BMP_temperature;BMP_pressure;BME280_temperature;BME280_humidity;BME280_pressure;Samples;Min_cycle;Max_cycle;Signal;HPM_P1;HPM_P2
2022/06/02 00:00:53;;;;;;;8.03;7.23;;;;;;;;;;5029513;28;20470;-72
2022/06/02 00:03:38;;;;;;;8.83;8.03;;;;;;;;;;5029189;28;20493;-68
2022/06/02 00:06:23;;;;;;;8.57;7.37;;;;;;;;;;5028417;28;20471;-68
2022/06/02 00:08:51;;;;;;;8.10;7.30;;;;;;;;;;5028305;28;20399;-69
2022/06/02 00:11:21;;;;;;;7.87;7.17;;;;;;;;;;5029238;28;20453;-69
2022/06/02 00:14:10;;;;;;;9.63;7.37;;;;;;;;;;5028450;28;20399;-69
2022/06/02 00:16:59;;;;;;;8.80;7.90;;;;;;;;;;5029228;28;20860;-69
2022/06/02 00:19:31;;;;;;;8.80;7.47;;;;;;;;;;5028295;28;20835;-69
2022/06/02 00:22:04;;;;;;;9.40;8.17;;;;;;;;;;5029308;28;20409;-68
2022/06/02 00:24:36;;;;;;;8.00;7.30;;;;;;;;;;5029293;28;20897;-68
2022/06/02 00:27:07;;;;;;;8.37;7.47;;;;;;;;;;5028693;28;20902;-69
2022/06/02 00:29:43;;;;;;;7.90;7.20;;;;;;;;;;5028735;28;20414;-67
2022/06/02 00:32:20;;;;;;;8.80;7.60;;;;;;;;;;5028901;28;20528;-68
2022/06/02 00:34:50;;;;;;;9.10;8.23;;;;;;;;;;5028393;28;20466;-68
2022/06/02 00:37:19;;;;;;;9.17;8.17;;;;;;;;;;5028623;28;20458;-68
2022/06/02 00:39:46;;;;;;;9.53;8.53;;;;;;;;;;5028342;28;20483;-67
2022/06/02 00:42:18;;;;;;;9.00;8.20;;;;;;;;;;5028707;28;20485;-67
2022/06/02 00:44:54;;;;;;;11.03;7.57;;;;;;;;;;5028336;28;20416;-67
2022/06/02 00:47:39;;;;;;;9.00;8.10;;;;;;;;;;5008768;28;20391;-67
2022/06/02 00:50:23;;;;;;;8.57;7.67;;;;;;;;;;5020160;28;21008;-67
2022/06/02 00:52:49;;;;;;;10.67;7.70;;;;;;;;;;5028512;28;20508;-67
2022/06/02 00:58:14;;;;;;;7.53;6.80;;;;;;;;;;5028130;28;20679;-68
2022/06/02 01:00:50;;;;;;;8.33;7.50;;;;;;;;;;5028447;28;20418;-68
2022/06/02 01:03:17;;;;;;;9.77;7.83;;;;;;;;;;5028789;28;20476;-67
2022/06/02 01:06:01;;;;;;;8.97;8.17;;;;;;;;;;5027908;28;20405;-68
2022/06/02 01:08:46;;;;;;;9.40;8.40;;;;;;;;;;5027850;28;20402;-67
2022/06/02 01:11:28;;;;;;;8.53;7.77;;;;;;;;;;5028766;28;20410;-68
2022/06/02 01:14:17;;;;;;;9.17;8.30;;;;;;;;;;5030301;28;20446;-68
2022/06/02 01:17:02;;;;;;;8.63;7.80;;;;;;;;;;5012994;28;20454;-67
2022/06/02 01:19:48;;;;;;;10.33;8.40;;;;;;;;;;5031525;28;20386;-67
2022/06/02 01:22:22;;;;;;;9.67;8.80;;;;;;;;;;5032516;28;20893;-67
2022/06/02 01:25:04;;;;;;;13.50;8.73;;;;;;;;;;5032324;28;20387;-68
2022/06/02 01:27:48;;;;;;;8.80;7.90;;;;;;;;;;5032274;28;20402;-68
2022/06/02 01:30:23;;;;;;;9.80;7.53;;;;;;;;;;5031189;28;20468;-68
2022/06/02 01:32:55;;;;;;;8.10;7.30;;;;;;;;;;5032607;28;20471;-67
2022/06/02 01:35:33;;;;;;;7.83;6.60;;;;;;;;;;5031309;28;20944;-68
2022/06/02 01:38:10;;;;;;;10.07;6.20;;;;;;;;;;5031698;28;20511;-67
2022/06/02 01:40:44;;;;;;;8.33;7.63;;;;;;;;;;5031885;28;20483;-68
2022/06/02 01:43:15;;;;;;;7.63;6.93;;;;;;;;;;5032288;28;20417;-67
2022/06/02 01:45:40;;;;;;;7.57;6.87;;;;;;;;;;5039509;28;20492;-68
2022/06/02 01:48:09;;;;;;;7.67;6.87;;;;;;;;;;5051536;28;20501;-68
2022/06/02 01:50:40;;;;;;;9.43;8.47;;;;;;;;;;5033861;28;20199;-67
2022/06/02 01:53:12;;;;;;;10.13;9.17;;;;;;;;;;5031999;28;20402;-67
2022/06/02 01:55:38;;;;;;;8.93;8.03;;;;;;;;;;5032037;28;20418;-67
2022/06/02 01:58:23;;;;;;;9.60;8.70;;;;;;;;;;5031251;28;20985;-67
2022/06/02 02:00:54;;;;;;;10.63;9.53;;;;;;;;;;5031203;28;20521;-68
2022/06/02 02:03:19;;;;;;;12.43;10.33;;;;;;;;;;5031419;28;20879;-67
2022/06/02 02:05:55;;;;;;;10.20;9.20;;;;;;;;;;5030757;28;20390;-68
2022/06/02 02:08:50;;;;;;;11.33;10.30;;;;;;;;;;5030832;28;20178;-68
2022/06/02 02:11:32;;;;;;;11.47;10.50;;;;;;;;;;5022237;28;20513;-68
2022/06/02 02:14:04;;;;;;;16.53;12.90;;;;;;;;;;5031007;28;20491;-68
2022/06/02 02:16:40;;;;;;;9.77;8.47;;;;;;;;;;5031284;28;20557;-68
2022/06/02 02:19:06;;;;;;;8.47;7.67;;;;;;;;;;5029998;28;20406;-68
2022/06/02 02:21:35;;;;;;;9.57;8.53;;;;;;;;;;5030597;28;20418;-68
2022/06/02 02:24:20;;;;;;;8.20;7.50;;;;;;;;;;5030967;28;20216;-67
2022/06/02 02:26:52;;;;;;;7.30;6.60;;;;;;;;;;5030458;28;20482;-68
2022/06/02 02:29:18;;;;;;;6.23;5.50;;;;;;;;;;5022193;28;20402;-67
2022/06/02 02:31:56;;;;;;;7.60;6.73;;;;;;;;;;5030330;28;20473;-68
2022/06/02 02:34:35;;;;;;;5.70;5.20;;;;;;;;;;5030693;28;20164;-68
2022/06/02 02:37:14;;;;;;;7.17;6.47;;;;;;;;;;5030356;28;21117;-68
2022/06/02 02:39:54;;;;;;;6.20;5.60;;;;;;;;;;5030086;28;20417;-68
2022/06/02 02:42:25;;;;;;;6.57;5.90;;;;;;;;;;5030668;28;20430;-68
2022/06/02 02:44:54;;;;;;;6.37;5.77;;;;;;;;;;5031103;28;20403;-67
2022/06/02 02:47:30;;;;;;;6.20;5.07;;;;;;;;;;5050596;28;20437;-68
2022/06/02 02:50:00;;;;;;;6.30;5.47;;;;;;;;;;5037645;28;20513;-68
2022/06/02 02:52:43;;;;;;;6.60;5.30;;;;;;;;;;5030762;28;20407;-68
2022/06/02 02:55:32;;;;;;;8.00;6.33;;;;;;;;;;5030363;28;20398;-67
2022/06/02 02:57:58;;;;;;;6.60;5.30;;;;;;;;;;5024577;28;20473;-68
2022/06/02 03:00:29;;;;;;;5.47;4.97;;;;;;;;;;5029108;28;20525;-68
2022/06/02 03:02:55;;;;;;;8.13;5.57;;;;;;;;;;5030274;28;20415;-68
2022/06/02 03:05:24;;;;;;;8.63;5.53;;;;;;;;;;5029194;28;20455;-68
2022/06/02 03:07:50;;;;;;;5.17;4.67;;;;;;;;;;5029944;28;20488;-67
2022/06/02 03:10:19;;;;;;;7.83;6.30;;;;;;;;;;5029042;28;20441;-67
2022/06/02 03:13:08;;;;;;;5.63;5.13;;;;;;;;;;5030368;28;20406;-68
2022/06/02 03:15:52;;;;;;;5.70;5.10;;;;;;;;;;5029176;28;20425;-67
2022/06/02 03:18:40;;;;;;;5.30;4.77;;;;;;;;;;5029939;28;20875;-68
2022/06/02 03:21:06;;;;;;;5.00;4.50;;;;;;;;;;5029294;28;20501;-68
2022/06/02 03:23:32;;;;;;;5.40;4.90;;;;;;;;;;5030060;28;20489;-68
2022/06/02 03:26:03;;;;;;;4.90;4.40;;;;;;;;;;5029902;28;20180;-68
2022/06/02 03:28:29;;;;;;;6.33;5.23;;;;;;;;;;5028914;28;20172;-68
2022/06/02 03:31:11;;;;;;;5.10;4.60;;;;;;;;;;5029561;28;20453;-68
2022/06/02 03:33:55;;;;;;;4.57;4.17;;;;;;;;;;5029956;28;20176;-68
2022/06/02 03:36:40;;;;;;;4.57;4.17;;;;;;;;;;5028210;28;20460;-67
2022/06/02 03:39:11;;;;;;;6.13;4.33;;;;;;;;;;5028569;28;20875;-69
2022/06/02 03:41:49;;;;;;;6.00;5.40;;;;;;;;;;5029618;28;20784;-68
2022/06/02 03:44:23;;;;;;;5.67;5.17;;;;;;;;;;5030404;28;20399;-68
2022/06/02 03:47:02;;;;;;;5.80;4.23;;;;;;;;;;5046700;28;20452;-68
2022/06/02 03:49:29;;;;;;;4.63;4.00;;;;;;;;;;5041122;28;20406;-68
2022/06/02 03:52:30;;;;;;;4.17;3.77;;;;;;;;;;5029215;28;20508;-68
2022/06/02 03:55:03;;;;;;;4.40;3.53;;;;;;;;;;4968094;28;20413;-68
2022/06/02 03:57:29;;;;;;;3.43;3.13;;;;;;;;;;5019464;28;20478;-68
2022/06/02 03:59:55;;;;;;;3.90;3.40;;;;;;;;;;5028558;28;20529;-68
2022/06/02 04:02:40;;;;;;;4.60;3.47;;;;;;;;;;5029833;28;20930;-68
2022/06/02 04:05:25;;;;;;;6.10;2.60;;;;;;;;;;5028830;28;20655;-68
2022/06/02 04:07:51;;;;;;;6.03;3.87;;;;;;;;;;5028982;28;20871;-68
2022/06/02 04:10:29;;;;;;;4.20;3.43;;;;;;;;;;5028664;28;20480;-67
2022/06/02 04:16:01;;;;;;;3.73;3.40;;;;;;;;;;5029198;28;20408;-68
2022/06/02 04:18:38;;;;;;;4.50;3.20;;;;;;;;;;5028406;28;20422;-68
2022/06/02 04:21:07;;;;;;;7.40;3.23;;;;;;;;;;5028169;28;20418;-68
2022/06/02 04:24:05;;;;;;;3.37;3.03;;;;;;;;;;5029529;28;20403;-68
2022/06/02 04:26:41;;;;;;;2.70;2.50;;;;;;;;;;5006253;28;20461;-68
2022/06/02 04:29:25;;;;;;;3.23;2.93;;;;;;;;;;5028363;28;20410;-67
2022/06/02 04:32:05;;;;;;;4.40;3.50;;;;;;;;;;5029434;28;21005;-68
2022/06/02 04:34:35;;;;;;;3.77;2.87;;;;;;;;;;5028723;28;20402;-68
2022/06/02 04:37:07;;;;;;;3.70;3.40;;;;;;;;;;5028399;28;20450;-67
2022/06/02 04:39:45;;;;;;;4.40;3.10;;;;;;;;;;5028489;28;20783;-68
2022/06/02 04:42:35;;;;;;;9.53;3.50;;;;;;;;;;5028919;28;20753;-68
2022/06/02 04:45:11;;;;;;;2.97;2.67;;;;;;;;;;5031505;28;20387;-68
2022/06/02 04:47:53;;;;;;;3.50;2.80;;;;;;;;;;5048387;28;20406;-68
2022/06/02 04:50:26;;;;;;;3.70;3.17;;;;;;;;;;5032364;28;20430;-68
2022/06/02 04:52:52;;;;;;;3.03;2.80;;;;;;;;;;5029270;28;20407;-69
2022/06/02 04:55:22;;;;;;;4.70;4.10;;;;;;;;;;5029378;28;20464;-68
2022/06/02 04:58:03;;;;;;;3.70;2.87;;;;;;;;;;5030436;28;20486;-68
2022/06/02 05:00:35;;;;;;;3.63;2.83;;;;;;;;;;5030512;28;20422;-68
2022/06/02 05:03:11;;;;;;;4.93;3.03;;;;;;;;;;5031785;28;20417;-68
2022/06/02 05:05:43;;;;;;;2.77;2.57;;;;;;;;;;5030662;28;20409;-68
2022/06/02 05:08:33;;;;;;;3.67;3.33;;;;;;;;;;5030982;28;20409;-68
2022/06/02 05:11:17;;;;;;;3.50;3.20;;;;;;;;;;5028803;28;20453;-69
2022/06/02 05:13:46;;;;;;;6.93;3.57;;;;;;;;;;5028558;28;20402;-69
2022/06/02 05:16:12;;;;;;;11.93;3.87;;;;;;;;;;5028853;28;20462;-68
2022/06/02 05:18:57;;;;;;;4.20;3.53;;;;;;;;;;5027652;28;20492;-69
2022/06/02 05:21:49;;;;;;;3.90;3.60;;;;;;;;;;5028173;28;20745;-70
2022/06/02 05:24:21;;;;;;;3.20;2.90;;;;;;;;;;5028227;28;20781;-70
2022/06/02 05:26:47;;;;;;;3.30;3.00;;;;;;;;;;5028336;28;20410;-69
2022/06/02 05:29:13;;;;;;;7.37;4.40;;;;;;;;;;5027581;28;20851;-69
2022/06/02 05:31:48;;;;;;;6.50;3.33;;;;;;;;;;5027698;28;20234;-69
2022/06/02 05:34:23;;;;;;;2.97;2.40;;;;;;;;;;5034220;28;20416;-70
2022/06/02 05:36:52;;;;;;;4.70;3.93;;;;;;;;;;5037295;28;20850;-72
2022/06/02 05:39:37;;;;;;;3.70;3.30;;;;;;;;;;5062051;28;20509;-69
2022/06/02 05:42:09;;;;;;;4.73;3.03;;;;;;;;;;5027576;28;20429;-69
2022/06/02 05:44:42;;;;;;;3.20;2.90;;;;;;;;;;5027351;28;20485;-70
2022/06/02 05:47:09;;;;;;;3.83;2.50;;;;;;;;;;5046949;28;20413;-73
2022/06/02 05:49:44;;;;;;;5.30;2.63;;;;;;;;;;5036893;28;20434;-69
2022/06/02 05:52:39;;;;;;;2.90;2.57;;;;;;;;;;5007172;28;20430;-69
2022/06/02 05:55:08;;;;;;;3.23;2.43;;;;;;;;;;4998898;28;20423;-69
2022/06/02 05:57:55;;;;;;;2.80;2.60;;;;;;;;;;5007101;28;20505;-70
2022/06/02 06:00:41;;;;;;;3.30;2.20;;;;;;;;;;4995010;28;20465;-71
2022/06/02 06:03:07;;;;;;;3.67;2.50;;;;;;;;;;5010615;28;20514;-70
2022/06/02 06:05:39;;;;;;;5.90;2.97;;;;;;;;;;5029266;28;20845;-69
2022/06/02 06:08:05;;;;;;;4.20;2.70;;;;;;;;;;5023708;28;20183;-70
2022/06/02 06:10:31;;;;;;;2.60;2.40;;;;;;;;;;5029364;28;20441;-70
2022/06/02 06:13:00;;;;;;;3.73;2.50;;;;;;;;;;5030069;28;20410;-70
2022/06/02 06:15:26;;;;;;;3.37;2.87;;;;;;;;;;5029587;28;20184;-69
2022/06/02 06:18:01;;;;;;;3.13;2.20;;;;;;;;;;5029879;28;20543;-70
2022/06/02 06:20:43;;;;;;;4.23;2.70;;;;;;;;;;5029452;28;20211;-69
2022/06/02 06:23:15;;;;;;;4.10;2.73;;;;;;;;;;5030938;28;20410;-69
2022/06/02 06:25:41;;;;;;;3.77;2.90;;;;;;;;;;5030575;28;20994;-70
2022/06/02 06:28:28;;;;;;;15.43;3.60;;;;;;;;;;5030094;28;20788;-69
2022/06/02 06:31:26;;;;;;;3.43;3.10;;;;;;;;;;5031016;28;20461;-69
2022/06/02 06:33:57;;;;;;;9.73;3.37;;;;;;;;;;4975991;28;20942;-70
2022/06/02 06:36:41;;;;;;;3.93;3.07;;;;;;;;;;5030077;28;20815;-70
2022/06/02 06:39:29;;;;;;;3.13;2.30;;;;;;;;;;5029979;28;20481;-69
2022/06/02 06:41:58;;;;;;;3.17;2.87;;;;;;;;;;5030560;28;20401;-69
2022/06/02 06:44:38;;;;;;;4.83;2.67;;;;;;;;;;5030121;28;20413;-70
2022/06/02 06:47:14;;;;;;;3.30;3.00;;;;;;;;;;5049652;28;20886;-69
2022/06/02 06:49:58;;;;;;;5.43;3.10;;;;;;;;;;5040040;28;20453;-71
2022/06/02 06:52:40;;;;;;;3.40;3.10;;;;;;;;;;5027939;28;20406;-69
2022/06/02 06:55:24;;;;;;;4.33;2.73;;;;;;;;;;5028899;28;20437;-69
2022/06/02 06:57:50;;;;;;;3.40;3.10;;;;;;;;;;5026115;28;20460;-68
2022/06/02 07:00:24;;;;;;;3.70;2.77;;;;;;;;;;5028227;28;20506;-70
2022/06/02 07:02:58;;;;;;;3.70;2.97;;;;;;;;;;5025061;28;20230;-69
2022/06/02 07:05:33;;;;;;;2.80;2.60;;;;;;;;;;5028331;28;20406;-69
2022/06/02 07:08:11;;;;;;;3.40;3.10;;;;;;;;;;5026648;28;20418;-70
2022/06/02 07:10:47;;;;;;;3.17;2.90;;;;;;;;;;5026152;28;20741;-68
2022/06/02 07:13:30;;;;;;;4.30;3.00;;;;;;;;;;5028750;28;20417;-70
2022/06/02 07:16:02;;;;;;;4.53;3.20;;;;;;;;;;5030624;28;20402;-70
2022/06/02 07:18:43;;;;;;;4.70;3.33;;;;;;;;;;5030266;28;20489;-69
2022/06/02 07:21:09;;;;;;;6.10;3.27;;;;;;;;;;5030088;28;20777;-68
2022/06/02 07:23:47;;;;;;;13.00;4.13;;;;;;;;;;5036469;28;20398;-70
2022/06/02 07:26:19;;;;;;;5.90;3.33;;;;;;;;;;5036604;28;20231;-68
2022/06/02 07:28:54;;;;;;;4.30;3.33;;;;;;;;;;5030018;28;20398;-69
2022/06/02 07:31:29;;;;;;;3.03;2.83;;;;;;;;;;5030067;28;20528;-69
2022/06/02 07:34:13;;;;;;;3.90;3.27;;;;;;;;;;5029435;28;20408;-69
2022/06/02 07:36:39;;;;;;;5.70;3.83;;;;;;;;;;5029380;28;20829;-69
2022/06/02 07:39:11;;;;;;;4.80;3.37;;;;;;;;;;5029204;28;20497;-70
2022/06/02 07:41:56;;;;;;;3.77;3.47;;;;;;;;;;5029708;28;20223;-67
2022/06/02 07:44:24;;;;;;;4.00;3.50;;;;;;;;;;5028546;28;20718;-69
2022/06/02 07:46:52;;;;;;;4.00;3.60;;;;;;;;;;5030347;28;20517;-67
2022/06/02 07:49:34;;;;;;;4.10;3.80;;;;;;;;;;5028819;28;20398;-70
2022/06/02 07:52:29;;;;;;;5.53;4.17;;;;;;;;;;5028297;28;20422;-69
2022/06/02 07:55:01;;;;;;;4.40;3.53;;;;;;;;;;4941967;28;20415;-69
2022/06/02 07:57:37;;;;;;;3.57;3.27;;;;;;;;;;5029200;28;20590;-69
2022/06/02 08:00:20;;;;;;;3.37;2.90;;;;;;;;;;5028472;28;20847;-70
2022/06/02 08:03:06;;;;;;;4.17;3.77;;;;;;;;;;5029597;28;20404;-68
2022/06/02 08:05:51;;;;;;;5.97;3.67;;;;;;;;;;5028581;28;20405;-69
2022/06/02 08:08:36;;;;;;;4.37;3.97;;;;;;;;;;5028884;28;20425;-69
2022/06/02 08:11:16;;;;;;;3.90;3.40;;;;;;;;;;5029202;28;20493;-69
2022/06/02 08:13:58;;;;;;;4.70;4.30;;;;;;;;;;5028473;28;20428;-68
2022/06/02 08:16:23;;;;;;;4.40;3.63;;;;;;;;;;5026347;28;20456;-69
2022/06/02 08:18:55;;;;;;;12.97;3.30;;;;;;;;;;5028140;28;20410;-68
2022/06/02 08:21:27;;;;;;;5.10;3.83;;;;;;;;;;5029935;28;20222;-70
2022/06/02 08:23:56;;;;;;;4.20;3.30;;;;;;;;;;5028688;28;20427;-70
2022/06/02 08:26:35;;;;;;;5.00;3.50;;;;;;;;;;5029329;28;20418;-69
2022/06/02 08:29:07;;;;;;;4.83;3.73;;;;;;;;;;5028219;28;20414;-70
2022/06/02 08:31:48;;;;;;;3.23;2.93;;;;;;;;;;5028930;28;20457;-70
2022/06/02 08:34:17;;;;;;;6.77;3.60;;;;;;;;;;5028442;28;20434;-70
2022/06/02 08:36:57;;;;;;;13.30;5.13;;;;;;;;;;5028489;28;20536;-68
2022/06/02 08:39:50;;;;;;;7.77;4.07;;;;;;;;;;5028869;28;20394;-68
2022/06/02 08:42:38;;;;;;;4.00;3.60;;;;;;;;;;5013572;28;21012;-68
2022/06/02 08:45:23;;;;;;;5.50;3.60;;;;;;;;;;5031093;28;20843;-69
2022/06/02 08:47:51;;;;;;;3.80;3.30;;;;;;;;;;5048762;28;20397;-69
2022/06/02 08:50:36;;;;;;;5.20;2.90;;;;;;;;;;5042500;28;20433;-69
2022/06/02 08:53:20;;;;;;;6.90;3.50;;;;;;;;;;5029216;28;20470;-70
2022/06/02 08:56:05;;;;;;;5.70;3.70;;;;;;;;;;5028939;28;20485;-68
2022/06/02 08:58:34;;;;;;;12.80;3.80;;;;;;;;;;5027693;28;20720;-68
2022/06/02 09:01:09;;;;;;;5.13;3.60;;;;;;;;;;5028222;28;20448;-68
2022/06/02 09:03:41;;;;;;;5.80;3.83;;;;;;;;;;5028468;28;20474;-67
2022/06/02 09:06:26;;;;;;;7.47;3.87;;;;;;;;;;5027403;28;20460;-68
2022/06/02 09:08:59;;;;;;;6.97;4.07;;;;;;;;;;5028001;28;20409;-68
2022/06/02 09:11:44;;;;;;;4.77;3.73;;;;;;;;;;5028679;28;20594;-69
2022/06/02 09:14:19;;;;;;;5.03;3.57;;;;;;;;;;5028303;28;20398;-68
2022/06/02 09:17:03;;;;;;;6.10;3.17;;;;;;;;;;5028440;28;20449;-68
2022/06/02 09:19:35;;;;;;;5.10;3.50;;;;;;;;;;5027798;28;20401;-70
2022/06/02 09:22:04;;;;;;;4.33;3.30;;;;;;;;;;5028335;28;20398;-69
2022/06/02 09:24:40;;;;;;;3.60;3.10;;;;;;;;;;5028592;28;20286;-67
2022/06/02 09:27:22;;;;;;;6.37;3.83;;;;;;;;;;5028227;28;20409;-68
2022/06/02 09:30:02;;;;;;;3.93;3.30;;;;;;;;;;5030632;28;20210;-68
2022/06/02 09:32:28;;;;;;;6.60;3.63;;;;;;;;;;5034170;28;20213;-70
2022/06/02 09:34:54;;;;;;;8.43;4.20;;;;;;;;;;5032594;28;20174;-70
2022/06/02 09:37:40;;;;;;;8.10;3.90;;;;;;;;;;5037476;28;20488;-71
2022/06/02 09:40:30;;;;;;;10.73;3.87;;;;;;;;;;5036539;28;20195;-70
2022/06/02 09:43:08;;;;;;;3.63;2.73;;;;;;;;;;5031012;28;20436;-70
2022/06/02 09:45:45;;;;;;;4.43;3.57;;;;;;;;;;5044499;28;20409;-71
2022/06/02 09:48:14;;;;;;;3.50;3.17;;;;;;;;;;5060106;28;20400;-70
2022/06/02 09:50:40;;;;;;;4.40;3.00;;;;;;;;;;5054006;28;21113;-69
2022/06/02 09:53:15;;;;;;;4.47;2.93;;;;;;;;;;5040200;28;20428;-70
2022/06/02 09:55:48;;;;;;;5.03;2.40;;;;;;;;;;5039985;28;20205;-70
2022/06/02 09:58:26;;;;;;;4.93;2.73;;;;;;;;;;5041813;28;20485;-70
2022/06/02 10:01:04;;;;;;;4.60;2.60;;;;;;;;;;5043017;28;20417;-70
2022/06/02 10:03:53;;;;;;;5.83;2.80;;;;;;;;;;5043702;28;20547;-70
2022/06/02 10:06:34;;;;;;;5.23;2.00;;;;;;;;;;5041980;28;20740;-70
2022/06/02 10:09:22;;;;;;;2.90;2.30;;;;;;;;;;5040432;28;20401;-69
2022/06/02 10:11:51;;;;;;;4.10;2.47;;;;;;;;;;5033492;28;20491;-71
2022/06/02 10:14:35;;;;;;;5.83;3.07;;;;;;;;;;5030662;28;20394;-70
2022/06/02 10:17:10;;;;;;;3.93;2.83;;;;;;;;;;5031205;28;20468;-71
2022/06/02 10:19:55;;;;;;;3.80;3.50;;;;;;;;;;5030654;28;20447;-70
2022/06/02 10:22:35;;;;;;;2.83;2.63;;;;;;;;;;5032063;28;20404;-69
2022/06/02 10:25:07;;;;;;;5.67;3.27;;;;;;;;;;5031443;28;20921;-70
2022/06/02 10:27:39;;;;;;;10.67;3.33;;;;;;;;;;5031465;28;21148;-71
2022/06/02 10:30:24;;;;;;;4.27;2.97;;;;;;;;;;5030715;28;20429;-69
2022/06/02 10:33:09;;;;;;;4.87;3.37;;;;;;;;;;5030840;28;20393;-70
2022/06/02 10:36:10;;;;;;;3.90;3.50;;;;;;;;;;5030408;28;20440;-71
2022/06/02 10:38:41;;;;;;;4.90;3.30;;;;;;;;;;4968901;28;20514;-68
2022/06/02 10:41:10;;;;;;;7.00;3.70;;;;;;;;;;5021189;28;20429;-71
2022/06/02 10:43:39;;;;;;;4.40;3.67;;;;;;;;;;5030470;28;20468;-71
2022/06/02 10:46:24;;;;;;;6.80;3.57;;;;;;;;;;5041680;28;20425;-70
2022/06/02 10:49:00;;;;;;;4.97;3.77;;;;;;;;;;5049888;28;20723;-71
2022/06/02 10:51:32;;;;;;;3.13;2.93;;;;;;;;;;5036022;28;20954;-70
2022/06/02 10:53:58;;;;;;;5.03;3.23;;;;;;;;;;5030978;28;20413;-69
2022/06/02 10:56:33;;;;;;;4.90;2.80;;;;;;;;;;5030897;28;20453;-70
2022/06/02 10:59:20;;;;;;;3.70;3.00;;;;;;;;;;5029893;28;20273;-70
2022/06/02 11:02:02;;;;;;;4.00;3.70;;;;;;;;;;5010873;28;20509;-69
2022/06/02 11:04:35;;;;;;;4.10;2.90;;;;;;;;;;5021128;28;20394;-70
2022/06/02 11:07:20;;;;;;;4.13;3.03;;;;;;;;;;5029691;28;20402;-70
2022/06/02 11:09:48;;;;;;;4.13;3.27;;;;;;;;;;5030336;28;20390;-70
2022/06/02 11:12:38;;;;;;;4.87;2.90;;;;;;;;;;5029392;28;20409;-67
2022/06/02 11:15:08;;;;;;;4.50;3.57;;;;;;;;;;5009945;28;20412;-70
2022/06/02 11:17:34;;;;;;;7.77;3.40;;;;;;;;;;5029844;28;20461;-70
2022/06/02 11:20:21;;;;;;;4.77;3.27;;;;;;;;;;5028304;28;20456;-70
2022/06/02 11:23:05;;;;;;;5.20;3.70;;;;;;;;;;5030182;28;20227;-70
2022/06/02 11:25:37;;;;;;;4.40;3.13;;;;;;;;;;5029999;28;20488;-70
2022/06/02 11:28:22;;;;;;;3.03;2.83;;;;;;;;;;5029886;28;20845;-70
2022/06/02 11:30:48;;;;;;;3.43;3.00;;;;;;;;;;5029986;28;20520;-68
2022/06/02 11:33:14;;;;;;;3.70;3.20;;;;;;;;;;5029537;28;20406;-69
2022/06/02 11:35:46;;;;;;;6.50;3.43;;;;;;;;;;5028658;28;20867;-70
2022/06/02 11:38:35;;;;;;;4.43;2.90;;;;;;;;;;5029369;28;20489;-69
2022/06/02 11:41:04;;;;;;;3.60;3.30;;;;;;;;;;5021800;28;20461;-69
2022/06/02 11:43:39;;;;;;;7.27;3.77;;;;;;;;;;5029149;28;20488;-70
2022/06/02 11:46:05;;;;;;;3.93;2.70;;;;;;;;;;5040518;28;20440;-70
2022/06/02 11:48:47;;;;;;;10.93;3.80;;;;;;;;;;5036339;28;20909;-70
2022/06/02 11:51:32;;;;;;;7.40;3.63;;;;;;;;;;5026937;28;20196;-69
2022/06/02 11:54:00;;;;;;;3.70;3.40;;;;;;;;;;5025762;28;20422;-69
2022/06/02 11:56:26;;;;;;;5.57;3.50;;;;;;;;;;5027954;28;20454;-68
2022/06/02 11:58:52;;;;;;;3.90;3.20;;;;;;;;;;5026225;28;20486;-71
2022/06/02 12:01:40;;;;;;;9.17;4.53;;;;;;;;;;5029068;28;20242;-71
2022/06/02 12:04:06;;;;;;;4.20;3.90;;;;;;;;;;5000497;28;20171;-71
2022/06/02 12:06:32;;;;;;;3.10;2.80;;;;;;;;;;5027973;28;20418;-70
2022/06/02 12:08:58;;;;;;;8.00;3.10;;;;;;;;;;5027056;28;20183;-69
2022/06/02 12:11:33;;;;;;;5.90;3.27;;;;;;;;;;5027893;28;20183;-69
2022/06/02 12:14:18;;;;;;;4.00;3.03;;;;;;;;;;5026777;28;20177;-71
2022/06/02 12:17:04;;;;;;;4.30;3.13;;;;;;;;;;5015493;28;20484;-70
2022/06/02 12:19:39;;;;;;;5.33;3.07;;;;;;;;;;5021214;28;20411;-69
2022/06/02 12:22:24;;;;;;;3.73;3.10;;;;;;;;;;5028634;28;20437;-71
2022/06/02 12:24:59;;;;;;;9.23;3.30;;;;;;;;;;5029009;28;20455;-72
2022/06/02 12:27:25;;;;;;;5.70;3.20;;;;;;;;;;5021568;28;20410;-70
2022/06/02 12:29:54;;;;;;;31.27;4.67;;;;;;;;;;5027930;28;20917;-70
2022/06/02 12:32:39;;;;;;;3.30;2.80;;;;;;;;;;5044399;28;20229;-70
2022/06/02 12:35:23;;;;;;;12.83;3.17;;;;;;;;;;5025281;28;20858;-70
2022/06/02 12:38:08;;;;;;;19.60;4.53;;;;;;;;;;5026611;28;20788;-70
2022/06/02 12:40:34;;;;;;;3.00;2.70;;;;;;;;;;5027595;28;20539;-70
2022/06/02 12:43:12;;;;;;;14.50;4.40;;;;;;;;;;5032566;28;20406;-71
2022/06/02 12:45:45;;;;;;;4.53;3.53;;;;;;;;;;5022836;28;20442;-70
2022/06/02 12:48:23;;;;;;;4.57;3.50;;;;;;;;;;5027040;28;20419;-70
2022/06/02 12:51:07;;;;;;;3.27;2.77;;;;;;;;;;5024394;28;20441;-70
2022/06/02 12:53:33;;;;;;;4.33;3.00;;;;;;;;;;5025102;28;20789;-70
2022/06/02 12:56:18;;;;;;;4.23;2.87;;;;;;;;;;5027535;28;20947;-70
2022/06/02 12:58:44;;;;;;;3.83;3.40;;;;;;;;;;5024357;28;20760;-70
2022/06/02 13:01:22;;;;;;;4.07;3.57;;;;;;;;;;5027033;28;20434;-70
2022/06/02 13:03:51;;;;;;;4.20;3.47;;;;;;;;;;5026107;28;20197;-70
2022/06/02 13:06:35;;;;;;;3.97;3.57;;;;;;;;;;5026216;28;20879;-71
2022/06/02 13:09:16;;;;;;;10.63;3.67;;;;;;;;;;5025071;28;20402;-71
2022/06/02 13:11:42;;;;;;;5.60;4.17;;;;;;;;;;5029602;28;20421;-72
2022/06/02 13:14:11;;;;;;;5.60;3.37;;;;;;;;;;5032219;28;21023;-70
2022/06/02 13:16:56;;;;;;;3.33;3.03;;;;;;;;;;5032935;28;20278;-71
2022/06/02 13:19:46;;;;;;;3.67;2.60;;;;;;;;;;5013661;28;20418;-69
2022/06/02 13:22:12;;;;;;;3.93;2.90;;;;;;;;;;5031544;28;20465;-70
2022/06/02 13:24:41;;;;;;;3.63;2.83;;;;;;;;;;5032306;28;20909;-70
2022/06/02 13:27:22;;;;;;;3.50;3.20;;;;;;;;;;5031686;28;20501;-69
2022/06/02 13:29:54;;;;;;;4.57;3.53;;;;;;;;;;5031123;28;20434;-69
2022/06/02 13:32:39;;;;;;;3.30;3.00;;;;;;;;;;5030837;28;20426;-70
2022/06/02 13:35:37;;;;;;;4.40;3.20;;;;;;;;;;5028207;28;20406;-69
2022/06/02 13:38:03;;;;;;;3.77;3.37;;;;;;;;;;4997536;28;20588;-69
2022/06/02 13:40:32;;;;;;;3.33;3.03;;;;;;;;;;5031810;28;20480;-69
2022/06/02 13:43:13;;;;;;;7.70;2.80;;;;;;;;;;5030929;28;20421;-70
2022/06/02 13:45:39;;;;;;;3.00;2.73;;;;;;;;;;5030670;28;20502;-70
2022/06/02 13:48:24;;;;;;;7.77;3.03;;;;;;;;;;5030527;28;20790;-69
2022/06/02 13:50:50;;;;;;;4.53;3.03;;;;;;;;;;5028401;28;20536;-70
2022/06/02 13:53:31;;;;;;;4.13;3.50;;;;;;;;;;5028640;28;20611;-71
2022/06/02 13:58:51;;;;;;;3.33;2.97;;;;;;;;;;5027890;28;20832;-70
2022/06/02 14:01:28;;;;;;;3.70;3.30;;;;;;;;;;5031338;28;20490;-70
2022/06/02 14:04:03;;;;;;;6.97;3.30;;;;;;;;;;5027930;28;20179;-71
2022/06/02 14:06:31;;;;;;;8.40;3.67;;;;;;;;;;5031055;28;20497;-71
2022/06/02 14:09:06;;;;;;;3.80;3.50;;;;;;;;;;5030883;28;20949;-70
2022/06/02 14:11:46;;;;;;;3.73;3.30;;;;;;;;;;5031685;28;20468;-70
2022/06/02 14:14:21;;;;;;;4.50;3.20;;;;;;;;;;5031305;28;20896;-70
2022/06/02 14:17:06;;;;;;;4.13;3.33;;;;;;;;;;5031613;28;20464;-70
2022/06/02 14:19:38;;;;;;;4.53;3.17;;;;;;;;;;5030469;28;20820;-70
2022/06/02 14:22:04;;;;;;;3.63;3.33;;;;;;;;;;5030397;28;20405;-70
2022/06/02 14:24:30;;;;;;;8.43;3.60;;;;;;;;;;5031464;28;20402;-71
2022/06/02 14:27:02;;;;;;;5.30;3.20;;;;;;;;;;5031104;28;20406;-70
2022/06/02 14:29:37;;;;;;;3.40;3.10;;;;;;;;;;5030341;28;20176;-71
2022/06/02 14:32:19;;;;;;;3.67;3.37;;;;;;;;;;5032536;28;20421;-69
2022/06/02 14:34:54;;;;;;;3.83;3.03;;;;;;;;;;5032281;28;20399;-69
2022/06/02 14:37:20;;;;;;;4.00;3.00;;;;;;;;;;5033198;28;20464;-69
2022/06/02 14:40:13;;;;;;;6.47;2.90;;;;;;;;;;5031886;28;20407;-71
2022/06/02 14:43:04;;;;;;;2.90;2.70;;;;;;;;;;5017665;28;20183;-72
2022/06/02 14:45:39;;;;;;;4.30;2.90;;;;;;;;;;5041410;28;20404;-71
2022/06/02 14:48:18;;;;;;;3.53;3.23;;;;;;;;;;5057714;28;20492;-70
2022/06/02 14:50:54;;;;;;;4.60;3.00;;;;;;;;;;5042510;28;20453;-70
2022/06/02 14:53:32;;;;;;;3.60;3.27;;;;;;;;;;5031964;28;20390;-71
2022/06/02 14:56:12;;;;;;;4.00;2.80;;;;;;;;;;5030957;28;20410;-70
2022/06/02 14:58:58;;;;;;;7.57;3.30;;;;;;;;;;5029453;28;20460;-70
2022/06/02 15:01:30;;;;;;;3.27;2.80;;;;;;;;;;5030598;28;20501;-70
2022/06/02 15:04:21;;;;;;;3.73;2.93;;;;;;;;;;5029689;28;20456;-71
2022/06/02 15:06:56;;;;;;;4.40;2.90;;;;;;;;;;5029837;28;20452;-71
2022/06/02 15:09:25;;;;;;;5.93;4.00;;;;;;;;;;5029909;28;20501;-71
2022/06/02 15:12:12;;;;;;;3.70;3.40;;;;;;;;;;5030516;28;20930;-71
2022/06/02 15:14:50;;;;;;;4.97;3.20;;;;;;;;;;5009141;28;20445;-71
2022/06/02 15:17:35;;;;;;;3.77;3.47;;;;;;;;;;5031644;28;20540;-71
2022/06/02 15:20:21;;;;;;;3.90;3.10;;;;;;;;;;5031181;28;20953;-71
2022/06/02 15:23:06;;;;;;;3.77;3.47;;;;;;;;;;5033041;28;20518;-70
2022/06/02 15:25:49;;;;;;;6.33;4.07;;;;;;;;;;5032060;28;20414;-71
2022/06/02 15:28:15;;;;;;;5.67;3.60;;;;;;;;;;5029170;28;20395;-70
2022/06/02 15:31:08;;;;;;;3.40;2.77;;;;;;;;;;5029479;28;20778;-70
2022/06/02 15:33:53;;;;;;;3.90;3.40;;;;;;;;;;5028056;28;20514;-69
2022/06/02 15:36:24;;;;;;;5.40;3.47;;;;;;;;;;5029543;28;20429;-69
2022/06/02 15:38:52;;;;;;;4.33;3.73;;;;;;;;;;5028966;28;21338;-69
2022/06/02 15:41:51;;;;;;;6.00;3.10;;;;;;;;;;5029549;28;20430;-69
2022/06/02 15:44:46;;;;;;;3.90;3.13;;;;;;;;;;5006457;28;20498;-70
2022/06/02 15:47:18;;;;;;;3.57;3.27;;;;;;;;;;4996685;28;20435;-70